Terminal Aerodrome Forecast
Issued by NWS Cleveland, OH

Home | Current Version | Previous Version | Text Only | Print | Product List | Glossary Off
Versions: 1 2 3 4 5 6 7 8 9 10 11 12 13 14 15 16 17 18 19 20 21 22 23 24 25 26 27 28 29 30 31 32

000
FTUS41 KCLE 261135
TAFCLE
TAF
KCLE 261135Z 2612/2718 30004KT P6SM SCT015 BKN020 OVC100
      TEMPO 2615/2618 SCT020 BKN035
     FM261800 36006KT P6SM BKN035 OVC250
     FM262300 36005KT P6SM SKC
     FM270100 VRB03KT P6SM SKC
     FM271600 03010KT P6SM SKC=

USA.gov is the U.S. government's official web portal to all federal, state and local government web resources and services.